Time;durP1;ratioP1;P1;durP2;ratioP2;P2;SDS_P1;SDS_P2;PMS_P1;PMS_P2;Temp;Humidity;BMP_temperature;BMP_pressure;BME280_temperature;BME280_humidity;BME280_pressure;Samples;Min_cycle;Max_cycle;Signal;HPM_P1;HPM_P2
2023/09/20 00:00:11;;;;;;;12.67;11.87;;;13.20;99.90;;;;;;4741589;30;20521;-52
2023/09/20 00:02:39;;;;;;;12.10;11.47;;;13.20;99.90;;;;;;4741320;30;20423;-52
2023/09/20 00:05:05;;;;;;;12.17;11.57;;;13.20;99.90;;;;;;4741105;30;20431;-54
2023/09/20 00:07:31;;;;;;;11.87;11.20;;;13.20;99.90;;;;;;4741083;30;20496;-56
2023/09/20 00:09:56;;;;;;;12.67;11.80;;;13.30;99.90;;;;;;4741446;30;20435;-51
2023/09/20 00:12:22;;;;;;;12.70;12.00;;;13.30;99.90;;;;;;4740968;30;20641;-53
2023/09/20 00:14:47;;;;;;;13.00;12.20;;;13.30;99.90;;;;;;4740438;30;20255;-59
2023/09/20 00:17:13;;;;;;;12.50;11.70;;;13.30;99.90;;;;;;4739949;30;20633;-52
2023/09/20 00:19:42;;;;;;;12.60;11.90;;;13.30;99.90;;;;;;4740643;30;20561;-53
2023/09/20 00:22:10;;;;;;;12.20;11.60;;;13.30;99.90;;;;;;4740407;30;20205;-55
2023/09/20 00:24:36;;;;;;;12.73;11.83;;;13.30;99.90;;;;;;4740599;30;20938;-55
2023/09/20 00:27:02;;;;;;;12.83;12.13;;;13.30;99.90;;;;;;4740078;30;20443;-54
2023/09/20 00:29:28;;;;;;;12.83;12.20;;;13.30;99.90;;;;;;4740537;30;20259;-53
2023/09/20 00:31:53;;;;;;;12.57;11.90;;;13.30;99.90;;;;;;4740556;30;20430;-53
2023/09/20 00:34:19;;;;;;;13.20;12.40;;;13.30;99.90;;;;;;4740245;30;20647;-55
2023/09/20 00:36:44;;;;;;;12.70;11.90;;;13.20;99.90;;;;;;4740712;30;20200;-59
2023/09/20 00:39:10;;;;;;;12.40;11.70;;;13.20;99.90;;;;;;4740679;30;20295;-56
2023/09/20 00:41:36;;;;;;;12.50;11.83;;;13.20;99.90;;;;;;4740376;30;20975;-50
2023/09/20 00:44:02;;;;;;;13.00;12.20;;;13.20;99.90;;;;;;4740745;30;21050;-55
2023/09/20 00:46:29;;;;;;;12.83;12.07;;;13.20;99.90;;;;;;4739564;30;21386;-54
2023/09/20 00:48:56;;;;;;;12.47;11.87;;;13.20;99.90;;;;;;4740324;30;20641;-53
2023/09/20 00:51:23;;;;;;;12.30;11.60;;;13.20;99.90;;;;;;4739407;30;20911;-53
2023/09/20 00:53:52;;;;;;;13.20;12.40;;;13.20;99.90;;;;;;4753373;30;20446;-55
2023/09/20 00:56:18;;;;;;;12.37;11.70;;;13.20;99.90;;;;;;4739799;30;20863;-55
2023/09/20 00:58:45;;;;;;;12.67;11.97;;;13.20;99.90;;;;;;4739230;30;20443;-53
2023/09/20 01:01:12;;;;;;;12.43;11.73;;;13.20;99.90;;;;;;4739397;30;20483;-54
2023/09/20 01:03:39;;;;;;;12.23;11.57;;;13.20;99.90;;;;;;4740137;30;20477;-52
2023/09/20 01:06:08;;;;;;;13.00;12.33;;;13.20;99.90;;;;;;4739996;30;21695;-52
2023/09/20 01:08:34;;;;;;;12.53;11.83;;;13.20;99.90;;;;;;4739104;30;20625;-55
2023/09/20 01:11:00;;;;;;;12.00;11.30;;;13.30;99.90;;;;;;4739107;30;20450;-53
2023/09/20 01:13:26;;;;;;;12.23;11.53;;;13.30;99.90;;;;;;4739653;30;20205;-54
2023/09/20 01:15:53;;;;;;;12.40;11.70;;;13.20;99.90;;;;;;4739808;30;20452;-55
2023/09/20 01:18:18;;;;;;;11.90;11.30;;;13.20;99.90;;;;;;4738902;30;20993;-55
2023/09/20 01:20:44;;;;;;;12.60;11.90;;;13.20;99.90;;;;;;4736992;30;20486;-55
2023/09/20 01:23:10;;;;;;;11.50;10.90;;;13.20;99.90;;;;;;4739279;30;20909;-56
2023/09/20 01:25:39;;;;;;;12.43;11.73;;;13.20;99.90;;;;;;4737633;30;20462;-53
2023/09/20 01:28:06;;;;;;;12.63;11.93;;;13.20;99.90;;;;;;4739781;30;20667;-55
2023/09/20 01:30:41;;;;;;;12.20;11.60;;;13.20;99.90;;;;;;4739209;30;20454;-56
2023/09/20 01:33:08;;;;;;;12.53;11.93;;;13.20;99.90;;;;;;4739462;30;20474;-56
2023/09/20 01:35:34;;;;;;;12.20;11.50;;;13.20;99.90;;;;;;4739895;30;20492;-55
2023/09/20 01:38:10;;;;;;;12.43;11.80;;;13.10;99.90;;;;;;4739250;30;20486;-52
2023/09/20 01:40:36;;;;;;;12.57;11.77;;;13.20;99.90;;;;;;4739089;30;21101;-50
2023/09/20 01:43:06;;;;;;;12.50;11.60;;;13.10;99.90;;;;;;4739055;30;20454;-48
2023/09/20 01:45:34;;;;;;;11.80;11.10;;;13.20;99.90;;;;;;4751554;30;20624;-54
2023/09/20 01:48:00;;;;;;;12.07;11.47;;;13.20;99.90;;;;;;4739525;30;20415;-55
2023/09/20 01:50:26;;;;;;;12.10;11.50;;;13.10;99.90;;;;;;4739296;30;20456;-53
2023/09/20 01:52:54;;;;;;;11.70;11.10;;;13.20;99.90;;;;;;4738640;30;20465;-55
2023/09/20 01:55:21;;;;;;;11.90;11.30;;;13.20;99.90;;;;;;4739360;30;20446;-54
2023/09/20 01:57:50;;;;;;;12.50;11.80;;;13.20;99.90;;;;;;4737804;30;20466;-53
2023/09/20 02:00:32;;;;;;;12.00;11.40;;;13.20;99.90;;;;;;4739390;30;21013;-58
2023/09/20 02:03:00;;;;;;;11.73;11.13;;;13.10;99.90;;;;;;4738822;30;20489;-52
2023/09/20 02:05:27;;;;;;;12.07;11.47;;;13.20;99.90;;;;;;4739666;30;20447;-54
2023/09/20 02:07:54;;;;;;;12.10;11.50;;;13.20;99.90;;;;;;4738025;30;20486;-52
2023/09/20 02:10:21;;;;;;;11.90;11.10;;;13.10;99.90;;;;;;4740556;30;20465;-55
2023/09/20 02:12:48;;;;;;;11.87;11.30;;;13.20;99.90;;;;;;4742185;30;20474;-54
2023/09/20 02:15:14;;;;;;;12.30;11.60;;;13.20;99.90;;;;;;4743617;30;20441;-54
2023/09/20 02:17:41;;;;;;;11.20;10.60;;;13.20;99.90;;;;;;4742152;30;20472;-55
2023/09/20 02:20:10;;;;;;;11.80;11.20;;;13.20;99.90;;;;;;4742450;30;20878;-49
2023/09/20 02:22:37;;;;;;;12.30;11.60;;;13.20;99.90;;;;;;4743175;30;20439;-54
2023/09/20 02:25:10;;;;;;;12.30;11.50;;;13.20;99.90;;;;;;4741780;30;21266;-55
2023/09/20 02:27:35;;;;;;;12.50;11.90;;;13.10;99.90;;;;;;4743086;30;20426;-52
2023/09/20 02:30:01;;;;;;;11.60;11.00;;;13.20;99.90;;;;;;4742137;30;20504;-52
2023/09/20 02:32:27;;;;;;;11.90;11.40;;;13.10;99.90;;;;;;4743230;30;20276;-54
2023/09/20 02:34:52;;;;;;;11.93;11.13;;;13.10;99.90;;;;;;4742742;30;20263;-54
2023/09/20 02:37:19;;;;;;;11.50;10.90;;;13.10;99.90;;;;;;4742654;30;20435;-51
2023/09/20 02:39:45;;;;;;;11.40;10.80;;;13.10;99.90;;;;;;4742185;30;21271;-55
2023/09/20 02:42:11;;;;;;;11.93;11.33;;;13.10;99.90;;;;;;4742626;30;20443;-54
2023/09/20 02:44:38;;;;;;;11.83;11.23;;;13.10;99.90;;;;;;4741840;30;20430;-50
2023/09/20 02:47:03;;;;;;;12.47;11.67;;;13.10;99.90;;;;;;4742351;30;20227;-54
2023/09/20 02:49:29;;;;;;;11.40;10.80;;;13.10;99.90;;;;;;4742627;30;20484;-52
2023/09/20 02:51:54;;;;;;;11.63;11.03;;;13.10;99.90;;;;;;4742709;30;20304;-52
2023/09/20 02:54:20;;;;;;;12.20;11.60;;;13.10;99.90;;;;;;4741032;30;20203;-54
2023/09/20 02:56:45;;;;;;;12.00;11.40;;;13.10;99.90;;;;;;4742423;30;20189;-51
2023/09/20 02:59:11;;;;;;;12.43;11.83;;;13.10;99.90;;;;;;4742169;30;20242;-52
2023/09/20 03:01:38;;;;;;;12.03;11.40;;;13.10;99.90;;;;;;4742449;30;20212;-52
2023/09/20 03:04:04;;;;;;;12.53;11.60;;;13.20;99.90;;;;;;4742526;30;20427;-56
2023/09/20 03:06:30;;;;;;;11.60;10.70;;;13.20;99.90;;;;;;4742514;30;20427;-54
2023/09/20 03:08:58;;;;;;;11.50;11.00;;;13.20;99.90;;;;;;4742199;30;20476;-53
2023/09/20 03:11:25;;;;;;;10.87;10.37;;;13.20;99.90;;;;;;4742378;30;20509;-51
2023/09/20 03:13:51;;;;;;;11.73;11.07;;;13.20;99.90;;;;;;4742103;30;20430;-52
2023/09/20 03:16:18;;;;;;;12.57;11.87;;;13.20;99.90;;;;;;4741804;30;20512;-58
2023/09/20 03:18:45;;;;;;;11.73;11.10;;;13.20;99.90;;;;;;4741342;30;20455;-52
2023/09/20 03:21:11;;;;;;;11.47;10.87;;;13.30;99.90;;;;;;4741323;30;20620;-57
2023/09/20 03:23:37;;;;;;;12.30;11.63;;;13.30;99.90;;;;;;4741639;30;20455;-52
2023/09/20 03:26:04;;;;;;;11.73;11.03;;;13.30;99.90;;;;;;4742668;30;20197;-54
2023/09/20 03:28:32;;;;;;;11.90;11.30;;;13.30;99.90;;;;;;4742090;30;20451;-52
2023/09/20 03:31:02;;;;;;;12.10;11.50;;;13.20;99.90;;;;;;4742068;30;20434;-54
2023/09/20 03:33:31;;;;;;;11.23;10.63;;;13.30;99.90;;;;;;4740620;30;20490;-56
2023/09/20 03:35:58;;;;;;;11.47;10.87;;;13.20;99.90;;;;;;4741772;30;20434;-54
2023/09/20 03:38:27;;;;;;;11.53;10.90;;;13.20;99.90;;;;;;4741819;30;20448;-49
2023/09/20 03:40:53;;;;;;;11.87;11.27;;;13.30;99.90;;;;;;4741322;30;20536;-55
2023/09/20 03:43:19;;;;;;;12.07;11.37;;;13.30;99.90;;;;;;4741918;30;20431;-53
2023/09/20 03:45:45;;;;;;;11.37;10.70;;;13.30;99.90;;;;;;4740226;30;20596;-51
2023/09/20 03:48:10;;;;;;;11.90;11.27;;;13.30;99.90;;;;;;4741333;30;20613;-46
2023/09/20 03:50:43;;;;;;;11.47;10.77;;;13.30;99.90;;;;;;4741390;30;20534;-45
2023/09/20 03:53:09;;;;;;;11.20;10.63;;;13.30;99.90;;;;;;4740174;30;20738;-45
2023/09/20 03:55:34;;;;;;;11.50;11.00;;;13.30;99.90;;;;;;4741570;30;20439;-47
2023/09/20 03:58:00;;;;;;;10.87;10.27;;;13.30;99.90;;;;;;4741406;30;20221;-45
2023/09/20 04:00:27;;;;;;;11.80;11.20;;;13.30;99.90;;;;;;4741382;30;20216;-46
2023/09/20 04:02:55;;;;;;;11.77;11.10;;;13.30;99.90;;;;;;4741381;30;20189;-49
2023/09/20 04:05:21;;;;;;;10.87;10.20;;;13.40;99.90;;;;;;4741383;30;20560;-47
2023/09/20 04:07:50;;;;;;;10.97;9.97;;;13.40;99.90;;;;;;4741817;30;20423;-50
2023/09/20 04:10:17;;;;;;;11.40;10.70;;;13.40;99.90;;;;;;4740961;30;20191;-45
2023/09/20 04:12:45;;;;;;;10.67;9.93;;;13.40;99.90;;;;;;4741418;30;20518;-50
2023/09/20 04:15:11;;;;;;;11.43;10.70;;;13.40;99.90;;;;;;4740232;30;20466;-50
2023/09/20 04:17:37;;;;;;;10.40;9.90;;;13.40;99.90;;;;;;4740805;30;20512;-47
2023/09/20 04:20:07;;;;;;;10.80;10.30;;;13.40;99.90;;;;;;4740389;30;20484;-43
2023/09/20 04:22:34;;;;;;;11.47;10.87;;;13.30;99.90;;;;;;4741468;30;20640;-44
2023/09/20 04:25:00;;;;;;;11.20;10.50;;;13.30;99.90;;;;;;4741065;30;20431;-44
2023/09/20 04:27:29;;;;;;;11.50;11.00;;;13.20;99.90;;;;;;4739863;30;20866;-48
2023/09/20 04:29:55;;;;;;;11.50;10.80;;;13.20;99.90;;;;;;4738297;30;21025;-49
2023/09/20 04:32:21;;;;;;;11.77;11.17;;;13.20;99.90;;;;;;4738496;30;20468;-44
2023/09/20 04:34:47;;;;;;;11.87;11.17;;;13.20;99.90;;;;;;4739870;30;20239;-43
2023/09/20 04:37:13;;;;;;;10.80;10.10;;;13.20;99.90;;;;;;4740110;30;20535;-45
2023/09/20 04:39:39;;;;;;;10.90;10.20;;;13.20;99.90;;;;;;4738534;30;20220;-46
2023/09/20 04:42:07;;;;;;;11.30;10.50;;;13.20;99.90;;;;;;4739527;30;20196;-49
2023/09/20 04:44:33;;;;;;;12.13;11.43;;;13.20;99.90;;;;;;4740398;30;20581;-50
2023/09/20 04:46:58;;;;;;;11.70;11.10;;;13.30;99.90;;;;;;4740443;30;20942;-48
2023/09/20 04:49:24;;;;;;;11.47;10.77;;;13.30;99.90;;;;;;4740834;30;20515;-45
2023/09/20 04:51:50;;;;;;;12.10;11.40;;;13.30;99.90;;;;;;4740599;30;20199;-45
2023/09/20 04:54:15;;;;;;;10.93;10.20;;;13.40;99.90;;;;;;4740570;30;21149;-51
2023/09/20 04:56:47;;;;;;;11.17;10.57;;;13.50;99.90;;;;;;4740525;30;20669;-48
2023/09/20 04:59:14;;;;;;;11.87;11.17;;;13.50;99.90;;;;;;4740301;30;20687;-48
2023/09/20 05:01:42;;;;;;;12.07;11.40;;;13.50;99.90;;;;;;4739034;30;20454;-46
2023/09/20 05:04:15;;;;;;;11.10;10.60;;;13.60;99.90;;;;;;4740247;30;20423;-46
2023/09/20 05:06:42;;;;;;;11.20;10.50;;;13.70;99.90;;;;;;4740453;30;20437;-45
2023/09/20 05:09:08;;;;;;;11.13;10.30;;;13.80;99.90;;;;;;4740108;30;20442;-45
2023/09/20 05:11:34;;;;;;;11.30;10.70;;;13.90;99.90;;;;;;4740148;30;20426;-45
2023/09/20 05:14:00;;;;;;;11.80;11.20;;;13.90;99.90;;;;;;4740385;30;20987;-49
2023/09/20 05:16:26;;;;;;;11.43;10.73;;;14.00;99.90;;;;;;4739936;30;20185;-50
2023/09/20 05:18:52;;;;;;;13.43;12.07;;;14.00;99.90;;;;;;4740854;30;20456;-46
2023/09/20 05:21:17;;;;;;;12.20;11.50;;;14.10;99.90;;;;;;4739674;30;20585;-45
2023/09/20 05:23:43;;;;;;;12.87;11.97;;;14.20;99.90;;;;;;4740226;30;20813;-46
2023/09/20 05:26:09;;;;;;;12.30;11.60;;;14.20;99.90;;;;;;4739841;30;20199;-47
2023/09/20 05:28:35;;;;;;;12.20;11.50;;;14.30;99.90;;;;;;4739859;30;20196;-44
2023/09/20 05:31:05;;;;;;;12.70;12.00;;;14.30;99.90;;;;;;4738848;30;20271;-48
2023/09/20 05:33:31;;;;;;;12.20;11.50;;;14.30;99.90;;;;;;4739655;30;20640;-47
2023/09/20 05:36:00;;;;;;;12.27;11.57;;;14.40;99.90;;;;;;4740205;30;20451;-48
2023/09/20 05:38:26;;;;;;;12.33;11.63;;;14.40;99.90;;;;;;4740015;30;20449;-46
2023/09/20 05:40:52;;;;;;;11.93;11.33;;;14.50;99.90;;;;;;4739936;30;21377;-47
2023/09/20 05:43:18;;;;;;;12.20;11.40;;;14.60;99.90;;;;;;4740384;30;20434;-48
2023/09/20 05:45:43;;;;;;;11.83;11.13;;;14.60;99.90;;;;;;4742290;30;20426;-48
2023/09/20 05:48:12;;;;;;;12.77;11.93;;;14.70;99.90;;;;;;4744058;30;20204;-52
2023/09/20 05:50:41;;;;;;;11.83;11.23;;;14.80;99.90;;;;;;4743812;30;20207;-46
2023/09/20 05:53:10;;;;;;;11.50;11.00;;;14.80;99.90;;;;;;4743502;30;20845;-47
2023/09/20 05:55:37;;;;;;;11.90;11.30;;;14.90;99.90;;;;;;4742979;30;21039;-48
2023/09/20 05:58:04;;;;;;;11.53;11.03;;;14.90;99.90;;;;;;4742926;30;20477;-48
2023/09/20 06:00:30;;;;;;;11.57;10.70;;;15.00;99.90;;;;;;4742859;30;20489;-48
2023/09/20 06:02:59;;;;;;;12.50;11.80;;;15.10;99.90;;;;;;4743401;30;20465;-49
2023/09/20 06:05:25;;;;;;;12.10;11.53;;;15.10;99.90;;;;;;4743498;30;20918;-49
2023/09/20 06:07:53;;;;;;;10.80;10.00;;;15.20;99.90;;;;;;4743314;30;20517;-46
2023/09/20 06:10:22;;;;;;;12.10;11.50;;;15.20;99.90;;;;;;4742196;30;20461;-48
2023/09/20 06:12:48;;;;;;;12.60;11.90;;;15.30;99.90;;;;;;4743287;30;20426;-51
2023/09/20 06:15:14;;;;;;;11.23;10.70;;;15.40;99.90;;;;;;4743390;30;20440;-48
2023/09/20 06:17:42;;;;;;;12.43;11.60;;;15.50;99.90;;;;;;4742754;30;20434;-44
2023/09/20 06:20:12;;;;;;;11.70;11.10;;;15.60;99.90;;;;;;4742912;30;20478;-46
2023/09/20 06:22:38;;;;;;;10.80;10.20;;;15.70;99.90;;;;;;4743006;30;20533;-46
2023/09/20 06:25:05;;;;;;;12.30;11.60;;;15.80;99.90;;;;;;4743338;30;20423;-46
2023/09/20 06:27:31;;;;;;;11.93;11.23;;;15.90;99.90;;;;;;4743139;30;20451;-58
2023/09/20 06:29:57;;;;;;;12.53;11.80;;;16.00;99.90;;;;;;4742988;30;20521;-54
2023/09/20 06:32:23;;;;;;;11.40;10.80;;;16.10;99.90;;;;;;4742787;30;20931;-54
2023/09/20 06:34:49;;;;;;;11.50;11.00;;;16.30;99.90;;;;;;4742533;30;20565;-51
2023/09/20 06:37:14;;;;;;;11.47;10.70;;;16.50;99.90;;;;;;4742972;30;21226;-53
2023/09/20 06:39:43;;;;;;;10.70;10.20;;;16.70;99.90;;;;;;4742456;30;20312;-52
2023/09/20 06:42:09;;;;;;;12.47;11.87;;;16.90;99.90;;;;;;4742031;30;20561;-55
2023/09/20 06:44:35;;;;;;;12.40;11.80;;;17.10;99.90;;;;;;4742335;30;20525;-55
2023/09/20 06:47:02;;;;;;;12.20;11.60;;;17.20;99.90;;;;;;4742369;30;20431;-56
2023/09/20 06:49:29;;;;;;;11.90;11.20;;;17.30;99.90;;;;;;4742298;30;20450;-55
2023/09/20 06:51:56;;;;;;;12.00;11.30;;;17.40;99.90;;;;;;4742711;30;20434;-56
2023/09/20 06:54:22;;;;;;;11.47;10.87;;;17.60;99.90;;;;;;4741967;30;20450;-50
2023/09/20 06:56:48;;;;;;;12.70;11.90;;;17.60;99.90;;;;;;4742050;30;20435;-55
2023/09/20 06:59:16;;;;;;;11.50;10.90;;;17.70;99.90;;;;;;4742630;30;20274;-53
2023/09/20 07:01:42;;;;;;;11.77;11.00;;;17.70;99.90;;;;;;4742571;30;20199;-54
2023/09/20 07:04:09;;;;;;;11.50;11.00;;;17.70;99.90;;;;;;4741958;30;20438;-54
2023/09/20 07:06:35;;;;;;;11.77;11.10;;;17.80;99.90;;;;;;4742560;30;20518;-57
2023/09/20 07:09:00;;;;;;;11.97;11.37;;;17.80;99.90;;;;;;4742543;30;20886;-55
2023/09/20 07:11:28;;;;;;;11.80;11.20;;;17.90;99.90;;;;;;4741000;30;20203;-55
2023/09/20 07:13:54;;;;;;;12.00;11.20;;;17.90;99.90;;;;;;4742415;30;20195;-45
2023/09/20 07:16:20;;;;;;;11.10;10.50;;;18.10;99.90;;;;;;4741966;30;20430;-46
2023/09/20 07:18:46;;;;;;;11.40;10.80;;;18.20;99.90;;;;;;4742172;30;20435;-45
2023/09/20 07:21:14;;;;;;;11.57;10.97;;;18.30;99.90;;;;;;4742144;30;20516;-48
2023/09/20 07:23:41;;;;;;;12.50;11.70;;;18.30;99.90;;;;;;4742395;30;20188;-48
2023/09/20 07:26:07;;;;;;;12.07;11.47;;;18.50;99.90;;;;;;4741744;30;20423;-50
2023/09/20 07:28:36;;;;;;;11.10;10.50;;;18.50;99.90;;;;;;4741962;30;21116;-50
2023/09/20 07:31:03;;;;;;;12.33;11.53;;;18.40;99.90;;;;;;4742262;30;21116;-47
2023/09/20 07:33:29;;;;;;;10.83;10.23;;;18.40;99.90;;;;;;4741466;30;20487;-48
2023/09/20 07:35:58;;;;;;;11.97;11.27;;;18.50;99.90;;;;;;4741837;30;20438;-46
2023/09/20 07:40:51;;;;;;;11.60;11.00;;;18.60;99.90;;;;;;4740253;30;20521;-46
2023/09/20 23:13:03;;;;;;;12.90;12.20;;;15.70;99.90;;;;;;5042807;28;1332122;-51
2023/09/20 23:15:35;;;;;;;13.30;12.57;;;15.70;99.90;;;;;;5087850;28;20227;-44
2023/09/20 23:18:02;;;;;;;12.93;12.23;;;15.70;99.90;;;;;;5087161;28;20563;-49
2023/09/20 23:20:33;;;;;;;12.83;12.03;;;15.70;99.90;;;;;;5090148;28;20426;-46
2023/09/20 23:23:00;;;;;;;12.60;11.90;;;15.70;99.90;;;;;;5090284;28;20429;-45
2023/09/20 23:25:36;;;;;;;12.47;11.77;;;15.70;99.90;;;;;;5089343;28;20465;-47
2023/09/20 23:28:06;;;;;;;12.60;11.90;;;15.70;99.90;;;;;;5083409;28;20960;-44
2023/09/20 23:30:42;;;;;;;12.90;12.10;;;15.60;99.90;;;;;;5087462;28;20430;-49
2023/09/20 23:33:13;;;;;;;13.03;12.23;;;15.60;99.90;;;;;;5090125;28;20414;-49
2023/09/20 23:35:53;;;;;;;12.77;12.07;;;15.60;99.90;;;;;;5088504;28;20477;-47
2023/09/20 23:38:38;;;;;;;12.80;12.10;;;15.60;99.90;;;;;;5088659;28;20694;-48
2023/09/20 23:41:17;;;;;;;13.17;12.40;;;15.50;99.90;;;;;;5089491;28;21204;-49
2023/09/20 23:43:46;;;;;;;12.90;12.20;;;15.50;99.90;;;;;;5090104;28;20422;-46
2023/09/20 23:46:20;;;;;;;13.73;13.03;;;15.50;99.90;;;;;;5089016;28;20442;-48
2023/09/20 23:48:47;;;;;;;12.90;12.20;;;15.40;99.90;;;;;;5089797;28;20513;-48
2023/09/20 23:51:14;;;;;;;13.00;12.20;;;15.40;99.90;;;;;;5089087;28;20470;-50
2023/09/20 23:53:44;;;;;;;13.60;12.70;;;15.40;99.90;;;;;;5089634;28;20457;-43
2023/09/20 23:56:12;;;;;;;12.90;12.20;;;15.30;99.90;;;;;;5077109;28;20501;-46
2023/09/20 23:58:38;;;;;;;12.80;12.10;;;15.30;99.90;;;;;;5089863;28;20418;-50
